createdAt,value
2022-09-28T00:01:25.853Z,5.76
2022-09-28T00:03:59.621Z,5.75
2022-09-28T00:06:32.165Z,5.74
2022-09-28T00:09:05.102Z,5.76
2022-09-28T00:11:37.770Z,5.75
2022-09-28T00:14:11.362Z,5.77
2022-09-28T00:16:44.618Z,5.78
2022-09-28T00:19:17.749Z,5.81
2022-09-28T00:21:50.468Z,5.81
2022-09-28T00:24:27.345Z,5.82
2022-09-28T00:27:01.833Z,5.87
2022-09-28T00:29:37.109Z,5.86
2022-09-28T00:32:13.760Z,5.89
2022-09-28T00:34:46.251Z,5.86
2022-09-28T00:37:20.101Z,5.88
2022-09-28T00:39:53.017Z,5.89
2022-09-28T00:42:26.818Z,5.91
2022-09-28T00:45:00.121Z,5.92
2022-09-28T00:47:59.058Z,5.88
2022-09-28T00:50:37.451Z,5.85
2022-09-28T00:53:32.734Z,5.81
2022-09-28T00:56:13.452Z,5.79
2022-09-28T00:58:51.675Z,5.82
2022-09-28T01:01:24.463Z,5.84
2022-09-28T01:03:59.466Z,5.86
2022-09-28T01:06:35.962Z,5.91
2022-09-28T01:09:10.617Z,5.91
2022-09-28T01:11:43.250Z,5.93
2022-09-28T01:14:18.022Z,5.93
2022-09-28T01:17:06.948Z,5.96
2022-09-28T01:20:39.690Z,5.98
2022-09-28T01:23:58.625Z,5.98
2022-09-28T01:27:11.538Z,6.00
2022-09-28T01:29:51.540Z,5.99
2022-09-28T01:32:42.581Z,6.01
2022-09-28T01:35:25.240Z,6.03
2022-09-28T01:38:07.352Z,6.04
2022-09-28T01:40:41.224Z,6.07
2022-09-28T01:43:27.142Z,6.07
2022-09-28T01:46:13.705Z,6.08
2022-09-28T01:48:57.201Z,6.11
2022-09-28T01:51:41.124Z,6.09
2022-09-28T01:54:21.030Z,6.12
2022-09-28T01:57:14.369Z,6.15
2022-09-28T02:00:13.815Z,6.21
2022-09-28T02:02:59.482Z,6.22
2022-09-28T02:05:40.037Z,6.22
2022-09-28T02:08:33.652Z,6.24
2022-09-28T02:11:19.407Z,6.25
2022-09-28T02:14:04.246Z,6.28
2022-09-28T02:16:43.472Z,6.28
2022-09-28T02:19:21.232Z,6.28
2022-09-28T02:21:59.514Z,6.24
2022-09-28T02:24:59.445Z,6.20
2022-09-28T02:27:39.434Z,6.14
2022-09-28T02:30:12.582Z,6.08
2022-09-28T02:32:53.587Z,6.03
2022-09-28T02:35:26.313Z,5.96
2022-09-28T02:37:58.866Z,5.91
2022-09-28T02:40:35.269Z,5.87
2022-09-28T02:43:39.305Z,5.84
2022-09-28T02:46:35.678Z,5.79
2022-09-28T02:49:22.231Z,5.75
2022-09-28T02:52:19.900Z,5.70
2022-09-28T02:55:06.967Z,5.70
2022-09-28T02:58:18.236Z,5.67
2022-09-28T03:01:32.212Z,5.65
2022-09-28T03:04:07.834Z,5.63
2022-09-28T03:06:53.563Z,5.63
2022-09-28T03:09:58.141Z,5.63
2022-09-28T03:12:31.546Z,5.64
2022-09-28T03:15:26.390Z,5.66
2022-09-28T03:17:59.134Z,5.69
2022-09-28T03:20:33.544Z,5.69
2022-09-28T03:23:23.877Z,5.73
2022-09-28T03:25:57.170Z,5.76
2022-09-28T03:28:30.190Z,5.76
2022-09-28T03:31:02.897Z,5.77
2022-09-28T03:33:35.762Z,5.75
2022-09-28T03:36:09.567Z,5.77
2022-09-28T03:38:42.279Z,5.77
2022-09-28T03:41:14.902Z,5.77
2022-09-28T03:43:47.767Z,5.76
2022-09-28T03:46:20.448Z,5.73
2022-09-28T03:48:53.104Z,5.70
2022-09-28T03:51:26.316Z,5.69
2022-09-28T03:53:58.920Z,5.70
2022-09-28T03:56:31.497Z,5.69
2022-09-28T03:59:05.176Z,5.68
2022-09-28T04:01:37.885Z,5.65
2022-09-28T04:04:14.192Z,5.65
2022-09-28T04:06:46.646Z,5.65
2022-09-28T04:09:19.178Z,5.66
2022-09-28T04:12:03.277Z,5.68
2022-09-28T04:14:36.303Z,5.69
2022-09-28T04:17:08.881Z,5.73
2022-09-28T04:19:41.529Z,5.74
2022-09-28T04:22:14.284Z,5.77
2022-09-28T04:24:47.038Z,5.80
2022-09-28T04:27:38.322Z,5.80
2022-09-28T04:30:11.643Z,5.80
2022-09-28T04:32:47.590Z,5.80
2022-09-28T04:35:20.251Z,5.81
2022-09-28T04:37:52.836Z,5.82
2022-09-28T04:40:25.406Z,5.79
2022-09-28T04:42:58.017Z,5.76
2022-09-28T04:45:30.756Z,5.76
2022-09-28T04:48:07.816Z,5.68
2022-09-28T04:50:40.364Z,5.62
2022-09-28T04:53:12.921Z,5.57
2022-09-28T04:55:45.644Z,5.51
2022-09-28T04:58:18.654Z,5.45
2022-09-28T05:00:51.447Z,5.42
2022-09-28T05:03:24.135Z,5.36
2022-09-28T05:05:56.977Z,5.31
2022-09-28T05:08:29.708Z,5.27
2022-09-28T05:11:07.907Z,5.23
2022-09-28T05:13:45.953Z,5.19
2022-09-28T05:16:20.301Z,5.19
2022-09-28T05:18:57.059Z,5.20
2022-09-28T05:21:30.837Z,5.22
2022-09-28T05:24:07.356Z,5.23
2022-09-28T05:26:39.991Z,5.20
2022-09-28T05:29:12.742Z,5.20
2022-09-28T05:31:45.417Z,5.19
2022-09-28T05:34:18.120Z,5.19
2022-09-28T05:36:50.996Z,5.20
2022-09-28T05:39:23.648Z,5.21
2022-09-28T05:41:57.923Z,5.17
2022-09-28T05:44:30.558Z,5.17
2022-09-28T05:47:03.291Z,5.16
2022-09-28T05:49:35.878Z,5.17
2022-09-28T05:52:08.446Z,5.19
2022-09-28T05:54:41.256Z,5.21
2022-09-28T05:57:15.293Z,5.28
2022-09-28T05:59:47.852Z,5.27
2022-09-28T06:02:20.551Z,5.30
2022-09-28T06:04:53.941Z,5.30
2022-09-28T06:07:26.712Z,5.29
2022-09-28T06:10:00.076Z,5.29
2022-09-28T06:12:34.284Z,5.24
2022-09-28T06:15:07.871Z,5.24
2022-09-28T06:17:40.620Z,5.20
2022-09-28T06:20:13.677Z,5.18
2022-09-28T06:22:46.225Z,5.13
2022-09-28T06:25:18.997Z,5.11
2022-09-28T06:28:11.825Z,5.08
2022-09-28T06:30:45.065Z,5.08
2022-09-28T06:33:17.818Z,5.08
2022-09-28T06:35:52.135Z,5.10
2022-09-28T06:38:24.709Z,5.13
2022-09-28T06:40:57.938Z,5.14
2022-09-28T06:43:34.283Z,5.21
2022-09-28T06:46:10.523Z,5.26
2022-09-28T06:48:44.972Z,5.33
2022-09-28T06:51:17.560Z,5.38
2022-09-28T06:53:53.838Z,5.44
2022-09-28T06:56:30.624Z,5.50
2022-09-28T06:59:05.275Z,5.57
2022-09-28T07:01:37.973Z,5.65
2022-09-28T07:04:10.674Z,5.73
2022-09-28T07:06:48.025Z,5.85
2022-09-28T07:09:31.419Z,5.99
2022-09-28T07:12:06.180Z,6.17
2022-09-28T07:14:47.775Z,6.29
2022-09-28T07:17:20.938Z,6.41
2022-09-28T07:19:53.616Z,6.47
2022-09-28T07:22:39.588Z,6.52
2022-09-28T07:25:14.382Z,6.58
2022-09-28T07:27:47.155Z,6.63
2022-09-28T07:30:20.165Z,6.71
2022-09-28T07:32:54.528Z,6.75
2022-09-28T07:35:28.063Z,6.78
2022-09-28T07:38:08.324Z,6.85
2022-09-28T07:40:59.621Z,6.91
2022-09-28T07:43:32.856Z,7.00
2022-09-28T07:46:12.115Z,7.05
2022-09-28T07:48:45.754Z,7.13
2022-09-28T07:51:21.436Z,7.21
2022-09-28T07:53:56.723Z,7.30
2022-09-28T07:56:29.493Z,7.36
2022-09-28T07:59:01.986Z,7.44
2022-09-28T08:01:34.523Z,7.53
2022-09-28T08:04:07.075Z,7.57
2022-09-28T08:06:40.384Z,7.64
2022-09-28T08:09:12.859Z,7.73
2022-09-28T08:11:45.429Z,7.79
2022-09-28T08:14:19.458Z,7.86
2022-09-28T08:16:53.383Z,7.92
2022-09-28T08:19:26.072Z,8.02
2022-09-28T08:21:58.618Z,8.06
2022-09-28T08:24:32.229Z,8.14
2022-09-28T08:27:04.798Z,8.22
2022-09-28T08:29:37.553Z,8.34
2022-09-28T08:32:11.002Z,8.37
2022-09-28T08:34:43.995Z,8.45
2022-09-28T08:37:16.605Z,8.50
2022-09-28T08:39:49.237Z,8.58
2022-09-28T08:42:35.495Z,8.67
2022-09-28T08:45:15.345Z,8.76
2022-09-28T08:48:28.572Z,8.77
2022-09-28T08:51:13.768Z,8.84
2022-09-28T08:54:08.212Z,8.88
2022-09-28T08:57:03.029Z,8.82
2022-09-28T08:59:59.832Z,8.95
2022-09-28T09:02:36.665Z,9.02
2022-09-28T09:05:19.069Z,9.08
2022-09-28T09:08:35.012Z,9.13
2022-09-28T09:11:10.495Z,9.23
2022-09-28T09:14:20.904Z,9.31
2022-09-28T09:17:41.160Z,9.49
2022-09-28T09:20:25.060Z,9.50
2022-09-28T09:23:13.859Z,9.50
2022-09-28T09:25:56.281Z,9.56
2022-09-28T09:29:04.834Z,9.92
2022-09-28T09:31:50.109Z,10.15
2022-09-28T09:35:08.973Z,10.19
2022-09-28T09:38:07.766Z,10.26
2022-09-28T09:41:01.691Z,10.39
2022-09-28T09:44:19.850Z,10.45
2022-09-28T09:47:11.421Z,10.39
2022-09-28T09:49:56.018Z,10.39
2022-09-28T09:52:57.620Z,10.31
2022-09-28T09:55:45.443Z,10.19
2022-09-28T09:58:29.078Z,10.12
2022-09-28T10:01:12.301Z,10.22
2022-09-28T10:03:48.666Z,10.30
2022-09-28T10:06:31.485Z,10.31
2022-09-28T10:09:20.675Z,10.41
2022-09-28T10:11:54.049Z,10.43
2022-09-28T10:14:26.856Z,10.45
2022-09-28T10:17:03.845Z,10.56
2022-09-28T10:19:37.422Z,10.79
2022-09-28T10:22:23.993Z,10.98
2022-09-28T10:24:58.329Z,10.97
2022-09-28T10:27:35.395Z,11.03
2022-09-28T10:30:08.462Z,11.17
2022-09-28T10:32:47.075Z,11.17
2022-09-28T10:35:19.554Z,11.30
2022-09-28T10:38:01.719Z,11.57
2022-09-28T10:40:50.318Z,11.75
2022-09-28T10:43:29.928Z,11.74
2022-09-28T10:46:15.139Z,12.01
2022-09-28T10:49:11.839Z,11.98
2022-09-28T10:51:49.673Z,11.94
2022-09-28T10:54:28.797Z,12.06
2022-09-28T10:57:01.324Z,12.03
2022-09-28T10:59:41.786Z,11.96
2022-09-28T11:02:37.742Z,12.06
2022-09-28T11:05:23.997Z,11.93
2022-09-28T11:08:00.635Z,11.94
2022-09-28T11:10:34.742Z,12.24
2022-09-28T11:13:10.180Z,12.24
2022-09-28T11:15:44.275Z,12.49
2022-09-28T11:18:31.324Z,12.64
2022-09-28T11:21:21.493Z,12.82
2022-09-28T11:24:19.808Z,12.92
2022-09-28T11:26:59.113Z,12.72
2022-09-28T11:29:44.130Z,12.77
2022-09-28T11:32:17.109Z,12.91
2022-09-28T11:34:59.598Z,12.97
2022-09-28T11:38:20.052Z,13.15
2022-09-28T11:41:27.813Z,12.99
2022-09-28T11:44:13.728Z,13.01
2022-09-28T11:47:30.248Z,13.14
2022-09-28T11:50:29.165Z,12.96
2022-09-28T11:53:27.309Z,13.12
2022-09-28T11:56:15.508Z,13.05
2022-09-28T11:58:58.006Z,12.86
2022-09-28T12:01:57.661Z,12.78
2022-09-28T12:04:44.044Z,12.58
2022-09-28T12:07:39.051Z,12.53
2022-09-28T12:11:12.365Z,12.47
2022-09-28T12:13:51.478Z,12.36
2022-09-28T12:19:42.466Z,12.74
2022-09-28T12:22:30.351Z,12.67
2022-09-28T12:25:10.183Z,12.87
2022-09-28T12:27:56.001Z,13.08
2022-09-28T12:30:37.372Z,13.29
2022-09-28T12:33:17.928Z,13.19
2022-09-28T12:36:41.459Z,13.37
2022-09-28T12:40:15.035Z,12.66
2022-09-28T12:43:17.527Z,12.51
2022-09-28T12:46:18.295Z,12.10
2022-09-28T12:52:27.596Z,11.64
2022-09-28T12:55:29.505Z,11.62
2022-09-28T12:58:28.514Z,11.39
2022-09-28T13:01:45.087Z,11.15
2022-09-28T13:04:54.976Z,10.99
2022-09-28T13:07:44.438Z,10.85
2022-09-28T13:10:40.565Z,10.63
2022-09-28T13:13:39.796Z,10.49
2022-09-28T13:16:35.994Z,10.51
2022-09-28T13:19:24.073Z,10.37
2022-09-28T13:22:22.866Z,10.33
2022-09-28T13:25:02.672Z,10.23
2022-09-28T13:27:45.373Z,10.22
2022-09-28T13:30:19.285Z,10.18
2022-09-28T13:32:56.462Z,10.12
2022-09-28T13:35:29.983Z,10.11
2022-09-28T13:38:17.589Z,10.09
2022-09-28T13:41:05.043Z,10.01
2022-09-28T13:44:12.229Z,9.99
2022-09-28T13:47:48.253Z,9.94
2022-09-28T13:51:09.468Z,9.95
2022-09-28T13:54:19.992Z,9.82
2022-09-28T13:57:41.712Z,9.84
2022-09-28T14:00:51.293Z,9.73
2022-09-28T14:04:01.369Z,9.82
2022-09-28T14:06:33.909Z,9.94
2022-09-28T14:09:12.383Z,10.09
2022-09-28T14:11:56.841Z,10.20
2022-09-28T14:14:50.743Z,10.42
2022-09-28T14:17:25.875Z,10.67
2022-09-28T14:20:12.898Z,10.91
2022-09-28T14:23:00.772Z,11.06
2022-09-28T14:25:45.598Z,11.18
2022-09-28T14:28:33.933Z,11.36
2022-09-28T14:31:24.007Z,11.38
2022-09-28T14:34:03.323Z,11.44
2022-09-28T14:37:07.509Z,11.69
2022-09-28T14:40:04.434Z,11.95
2022-09-28T14:42:37.082Z,12.08
2022-09-28T14:45:12.471Z,12.23
2022-09-28T14:48:21.732Z,12.25
2022-09-28T14:50:55.733Z,12.20
2022-09-28T14:53:28.797Z,12.27
2022-09-28T14:56:09.017Z,12.47
2022-09-28T14:58:42.282Z,12.36
2022-09-28T15:01:24.901Z,12.04
2022-09-28T15:04:06.775Z,12.11
2022-09-28T15:06:49.101Z,12.11
2022-09-28T15:09:37.332Z,12.22
2022-09-28T15:12:28.931Z,12.22
2022-09-28T15:15:18.547Z,12.06
2022-09-28T15:18:09.125Z,12.01
2022-09-28T15:20:46.720Z,12.03
2022-09-28T15:23:27.584Z,12.17
2022-09-28T15:26:00.911Z,12.03
2022-09-28T15:28:36.606Z,11.88
2022-09-28T15:31:22.742Z,12.05
2022-09-28T15:34:13.868Z,12.10
2022-09-28T15:36:46.976Z,12.11
2022-09-28T15:39:32.190Z,12.03
2022-09-28T15:42:06.349Z,12.17
2022-09-28T15:44:42.977Z,12.21
2022-09-28T15:47:26.010Z,12.04
2022-09-28T15:50:22.881Z,11.89
2022-09-28T15:53:05.542Z,11.70
2022-09-28T15:55:44.754Z,11.54
2022-09-28T15:58:20.169Z,11.60
2022-09-28T16:01:36.075Z,11.46
2022-09-28T16:04:50.312Z,11.38
2022-09-28T16:07:38.179Z,11.32
2022-09-28T16:10:13.773Z,11.37
2022-09-28T16:13:00.048Z,11.29
2022-09-28T16:15:37.703Z,11.29
2022-09-28T16:18:20.691Z,11.20
2022-09-28T16:20:59.016Z,11.20
2022-09-28T16:23:34.450Z,11.16
2022-09-28T16:26:31.903Z,11.01
2022-09-28T16:29:25.542Z,10.92
2022-09-28T16:32:26.954Z,10.88
2022-09-28T16:35:27.457Z,10.79
2022-09-28T16:38:16.074Z,10.83
2022-09-28T16:40:53.815Z,10.79
2022-09-28T16:43:32.573Z,11.02
2022-09-28T16:46:13.316Z,11.33
2022-09-28T16:48:49.578Z,11.57
2022-09-28T16:51:23.607Z,11.78
2022-09-28T16:54:25.238Z,11.91
2022-09-28T16:56:58.181Z,12.04
2022-09-28T16:59:31.188Z,11.98
2022-09-28T17:05:13.406Z,11.87
2022-09-28T17:07:49.878Z,11.83
2022-09-28T17:11:13.006Z,11.82
2022-09-28T17:13:45.206Z,11.74
2022-09-28T17:16:42.648Z,11.47
2022-09-28T17:19:23.697Z,11.30
2022-09-28T17:21:56.184Z,11.07
2022-09-28T17:24:28.642Z,10.95
2022-09-28T17:27:02.126Z,10.78
2022-09-28T17:29:34.694Z,10.57
2022-09-28T17:32:18.760Z,10.45
2022-09-28T17:35:00.688Z,10.28
2022-09-28T17:37:36.023Z,10.11
2022-09-28T17:40:22.025Z,9.99
2022-09-28T17:42:59.636Z,9.83
2022-09-28T17:45:41.298Z,9.69
2022-09-28T17:48:18.947Z,9.53
2022-09-28T17:50:51.475Z,9.38
2022-09-28T17:53:24.057Z,9.22
2022-09-28T17:55:56.557Z,9.06
2022-09-28T17:58:29.147Z,8.91
2022-09-28T18:01:02.055Z,8.77
2022-09-28T18:03:34.594Z,8.61
2022-09-28T18:06:15.057Z,8.50
2022-09-28T18:08:47.775Z,8.37
2022-09-28T18:11:21.220Z,8.27
2022-09-28T18:13:53.929Z,8.14
2022-09-28T18:16:28.750Z,8.04
2022-09-28T18:19:01.769Z,7.94
2022-09-28T18:21:34.552Z,7.83
2022-09-28T18:24:07.081Z,7.73
2022-09-28T18:26:39.618Z,7.64
2022-09-28T18:29:12.146Z,7.56
2022-09-28T18:31:44.688Z,7.48
2022-09-28T18:34:17.256Z,7.41
2022-09-28T18:36:49.850Z,7.32
2022-09-28T18:39:23.761Z,7.27
2022-09-28T18:41:56.889Z,7.20
2022-09-28T18:44:29.562Z,7.12
2022-09-28T18:47:02.405Z,7.08
2022-09-28T18:49:35.522Z,7.02
2022-09-28T18:52:08.396Z,6.96
2022-09-28T18:54:41.607Z,6.89
2022-09-28T18:57:15.170Z,6.82
2022-09-28T18:59:48.012Z,6.78
2022-09-28T19:02:20.791Z,6.73
2022-09-28T19:04:53.767Z,6.69
2022-09-28T19:07:27.155Z,6.64
2022-09-28T19:10:00.058Z,6.62
2022-09-28T19:12:33.224Z,6.56
2022-09-28T19:15:06.731Z,6.52
2022-09-28T19:17:39.619Z,6.48
2022-09-28T19:20:12.225Z,6.45
2022-09-28T19:22:45.139Z,6.42
2022-09-28T19:25:18.263Z,6.42
2022-09-28T19:27:50.951Z,6.38
2022-09-28T19:30:23.715Z,6.35
2022-09-28T19:32:56.273Z,6.33
2022-09-28T19:35:29.507Z,6.29
2022-09-28T19:38:02.147Z,6.25
2022-09-28T19:40:37.423Z,6.22
2022-09-28T19:43:10.069Z,6.19
2022-09-28T19:45:43.008Z,6.15
2022-09-28T19:48:15.577Z,6.11
2022-09-28T19:51:03.621Z,6.09
2022-09-28T19:53:36.792Z,6.03
2022-09-28T19:56:10.252Z,5.98
2022-09-28T19:58:42.837Z,5.95
2022-09-28T20:01:15.928Z,5.93
2022-09-28T20:03:48.636Z,5.91
2022-09-28T20:06:23.212Z,5.89
2022-09-28T20:08:58.132Z,5.88
2022-09-28T20:11:31.493Z,5.86
2022-09-28T20:14:09.805Z,5.84
2022-09-28T20:16:42.534Z,5.80
2022-09-28T20:19:15.836Z,5.78
2022-09-28T20:21:49.431Z,5.72
2022-09-28T20:24:26.486Z,5.67
2022-09-28T20:26:59.576Z,5.64
2022-09-28T20:29:33.530Z,5.59
2022-09-28T20:32:09.066Z,5.55
2022-09-28T20:34:41.555Z,5.52
2022-09-28T20:37:17.237Z,5.48
2022-09-28T20:39:50.175Z,5.44
2022-09-28T20:42:22.803Z,5.40
2022-09-28T20:44:55.397Z,5.38
2022-09-28T20:47:28.441Z,5.35
2022-09-28T20:50:01.414Z,5.33
2022-09-28T20:52:34.372Z,5.28
2022-09-28T20:55:08.030Z,5.24
2022-09-28T20:57:40.643Z,5.20
2022-09-28T21:00:13.927Z,5.18
2022-09-28T21:02:52.291Z,5.15
2022-09-28T21:05:24.928Z,5.12
2022-09-28T21:07:58.593Z,5.10
2022-09-28T21:10:31.909Z,5.15
2022-09-28T21:13:04.420Z,5.19
2022-09-28T21:15:37.203Z,5.23
2022-09-28T21:18:09.794Z,5.23
2022-09-28T21:20:48.708Z,5.28
2022-09-28T21:23:24.914Z,5.31
2022-09-28T21:26:10.603Z,5.35
2022-09-28T21:28:44.769Z,5.35
2022-09-28T21:31:17.598Z,5.36
2022-09-28T21:33:50.801Z,5.35
2022-09-28T21:36:24.462Z,5.34
2022-09-28T21:38:57.671Z,5.31
2022-09-28T21:41:30.634Z,5.27
2022-09-28T21:44:03.464Z,5.25
2022-09-28T21:46:38.537Z,5.23
2022-09-28T21:49:12.573Z,5.24
2022-09-28T21:51:47.120Z,5.23
2022-09-28T21:54:20.702Z,5.18
2022-09-28T21:56:53.803Z,5.15
2022-09-28T21:59:26.486Z,5.16
2022-09-28T22:01:59.125Z,5.12
2022-09-28T22:04:32.288Z,5.11
2022-09-28T22:07:05.017Z,5.11
2022-09-28T22:09:37.654Z,5.11
2022-09-28T22:12:10.776Z,5.08
2022-09-28T22:14:43.560Z,5.09
2022-09-28T22:17:16.224Z,5.06
2022-09-28T22:19:48.924Z,5.04
2022-09-28T22:22:21.673Z,4.99
2022-09-28T22:24:54.994Z,4.95
2022-09-28T22:27:31.647Z,4.93
2022-09-28T22:30:04.903Z,4.87
2022-09-28T22:32:37.659Z,4.82
2022-09-28T22:35:10.323Z,4.84
2022-09-28T22:37:42.992Z,4.84
2022-09-28T22:40:15.811Z,4.80
2022-09-28T22:42:49.014Z,4.85
2022-09-28T22:45:23.063Z,4.84
2022-09-28T22:47:55.683Z,4.82
2022-09-28T22:50:28.443Z,4.79
2022-09-28T22:53:02.033Z,4.82
2022-09-28T22:55:34.661Z,4.81
2022-09-28T22:58:07.798Z,4.77
2022-09-28T23:00:40.759Z,4.74
2022-09-28T23:03:13.485Z,4.72
2022-09-28T23:05:56.694Z,4.71
2022-09-28T23:08:29.279Z,4.70
2022-09-28T23:11:02.974Z,4.72
2022-09-28T23:13:35.594Z,4.71
2022-09-28T23:16:11.967Z,4.70
2022-09-28T23:18:44.687Z,4.69
2022-09-28T23:21:22.424Z,4.68
2022-09-28T23:24:00.865Z,4.67
2022-09-28T23:26:36.903Z,4.64
2022-09-28T23:29:11.708Z,4.64
2022-09-28T23:31:44.846Z,4.67
2022-09-28T23:34:17.760Z,4.65
2022-09-28T23:36:52.810Z,4.63
2022-09-28T23:39:25.353Z,4.62
2022-09-28T23:41:58.961Z,4.61
2022-09-28T23:44:32.670Z,4.60
2022-09-28T23:47:05.512Z,4.57
2022-09-28T23:49:38.090Z,4.56
2022-09-28T23:52:10.683Z,4.54
2022-09-28T23:54:43.259Z,4.49
2022-09-28T23:57:15.995Z,4.47
2022-09-28T23:59:48.680Z,4.44
